Time;durP1;ratioP1;P1;durP2;ratioP2;P2;SDS_P1;SDS_P2;PMS_P1;PMS_P2;Temp;Humidity;BMP_temperature;BMP_pressure;BME280_temperature;BME280_humidity;BME280_pressure;Samples;Min_cycle;Max_cycle;Signal;HPM_P1;HPM_P2
2023/11/26 00:02:03;;;;;;;11.05;3.00;;;;;;;;;;5094703;28;20070;-28
2023/11/26 00:04:28;;;;;;;14.50;3.33;;;;;;;;;;5095038;28;20020;-28
2023/11/26 00:06:54;;;;;;;9.20;3.00;;;;;;;;;;5094679;28;20048;-29
2023/11/26 00:09:19;;;;;;;15.17;4.20;;;;;;;;;;5094347;28;20805;-29
2023/11/26 00:11:45;;;;;;;15.57;4.40;;;;;;;;;;5094607;28;20265;-29
2023/11/26 00:14:10;;;;;;;16.10;5.07;;;;;;;;;;5094598;28;20043;-29
2023/11/26 00:16:36;;;;;;;17.92;5.10;;;;;;;;;;5094805;28;20031;-28
2023/11/26 00:19:01;;;;;;;15.23;5.82;;;;;;;;;;5094127;28;20016;-29
2023/11/26 00:21:27;;;;;;;16.70;5.00;;;;;;;;;;5094024;28;20024;-29
2023/11/26 00:23:52;;;;;;;19.48;5.93;;;;;;;;;;5093399;28;20020;-28
2023/11/26 00:26:18;;;;;;;18.33;5.40;;;;;;;;;;5093847;28;20401;-29
2023/11/26 00:28:43;;;;;;;18.60;5.00;;;;;;;;;;5094534;28;20340;-28
2023/11/26 00:31:08;;;;;;;12.93;5.03;;;;;;;;;;5094036;28;20016;-29
2023/11/26 00:33:33;;;;;;;10.77;3.67;;;;;;;;;;5093957;28;20258;-29
2023/11/26 00:35:58;;;;;;;14.97;3.97;;;;;;;;;;5093934;28;20344;-28
2023/11/26 00:38:24;;;;;;;18.63;3.70;;;;;;;;;;5094120;28;20312;-29
2023/11/26 00:40:49;;;;;;;10.03;3.20;;;;;;;;;;5093994;28;20329;-29
2023/11/26 00:43:14;;;;;;;17.63;2.95;;;;;;;;;;5093759;28;20571;-28
2023/11/26 00:45:40;;;;;;;11.02;2.95;;;;;;;;;;5093950;28;20017;-28
2023/11/26 00:48:05;;;;;;;7.30;2.97;;;;;;;;;;5075610;28;20115;-29
2023/11/26 00:50:30;;;;;;;9.90;3.03;;;;;;;;;;5094210;28;20016;-29
2023/11/26 00:52:56;;;;;;;8.33;3.13;;;;;;;;;;5093747;28;20061;-29
2023/11/26 00:55:21;;;;;;;15.45;3.05;;;;;;;;;;5093613;28;20281;-28
2023/11/26 00:57:46;;;;;;;7.55;2.70;;;;;;;;;;5093619;28;20512;-29
2023/11/26 01:00:12;;;;;;;7.57;3.13;;;;;;;;;;5093539;28;20536;-29
2023/11/26 01:02:38;;;;;;;13.30;3.10;;;;;;;;;;5093456;28;20282;-28
2023/11/26 01:05:03;;;;;;;8.38;2.72;;;;;;;;;;5093386;28;20459;-29
2023/11/26 01:07:30;;;;;;;13.63;3.15;;;;;;;;;;5093749;28;20024;-28
2023/11/26 01:09:56;;;;;;;11.70;3.15;;;;;;;;;;5093680;28;20016;-29
2023/11/26 01:12:21;;;;;;;10.95;3.33;;;;;;;;;;5093590;28;20103;-29
2023/11/26 01:14:46;;;;;;;17.20;3.93;;;;;;;;;;5093406;28;20104;-28
2023/11/26 01:17:11;;;;;;;12.57;3.17;;;;;;;;;;5093952;28;20246;-29
2023/11/26 01:19:37;;;;;;;10.63;3.30;;;;;;;;;;5094399;28;20300;-28
2023/11/26 01:22:02;;;;;;;8.27;3.00;;;;;;;;;;5093235;28;20520;-28
2023/11/26 01:24:27;;;;;;;8.98;3.13;;;;;;;;;;5093564;28;20258;-35
2023/11/26 01:26:52;;;;;;;9.35;3.10;;;;;;;;;;5093253;28;20462;-29
2023/11/26 01:29:18;;;;;;;19.10;3.70;;;;;;;;;;5093304;28;20016;-28
2023/11/26 01:31:43;;;;;;;9.23;3.45;;;;;;;;;;5093246;28;20277;-28
2023/11/26 01:34:08;;;;;;;13.83;3.20;;;;;;;;;;5093767;28;20055;-28
2023/11/26 01:36:33;;;;;;;15.10;3.53;;;;;;;;;;5095869;28;20257;-29
2023/11/26 01:38:59;;;;;;;10.65;3.30;;;;;;;;;;5097584;28;20319;-28
2023/11/26 01:41:24;;;;;;;13.70;3.83;;;;;;;;;;5097199;28;20020;-29
2023/11/26 01:43:49;;;;;;;17.08;3.45;;;;;;;;;;5097460;28;20417;-29
2023/11/26 01:46:15;;;;;;;12.30;3.40;;;;;;;;;;5097451;28;20027;-29
2023/11/26 01:48:40;;;;;;;10.30;3.23;;;;;;;;;;5097072;28;20020;-28
2023/11/26 01:51:08;;;;;;;6.53;2.70;;;;;;;;;;5097002;28;20320;-28
2023/11/26 01:53:34;;;;;;;13.00;2.95;;;;;;;;;;5096948;28;20023;-28
2023/11/26 01:56:00;;;;;;;14.23;3.17;;;;;;;;;;5097011;28;20093;-28
2023/11/26 01:58:26;;;;;;;10.50;3.22;;;;;;;;;;5097188;28;20103;-28
2023/11/26 02:00:52;;;;;;;11.13;2.83;;;;;;;;;;5096855;28;20111;-29
2023/11/26 02:03:17;;;;;;;10.05;2.63;;;;;;;;;;5097134;28;20015;-29
2023/11/26 02:05:42;;;;;;;10.70;2.80;;;;;;;;;;5096746;28;20356;-28
2023/11/26 02:08:07;;;;;;;8.25;2.40;;;;;;;;;;5097283;28;20506;-28
2023/11/26 02:10:33;;;;;;;9.63;2.67;;;;;;;;;;5096971;28;20370;-28
2023/11/26 02:13:06;;;;;;;12.95;2.42;;;;;;;;;;5096573;28;20008;-28
2023/11/26 02:15:31;;;;;;;9.05;2.38;;;;;;;;;;5096858;28;20023;-28
2023/11/26 02:17:56;;;;;;;5.70;2.08;;;;;;;;;;5096600;28;20016;-28
2023/11/26 02:20:22;;;;;;;7.67;2.17;;;;;;;;;;5097098;28;20016;-28
2023/11/26 02:22:48;;;;;;;8.40;2.17;;;;;;;;;;5096688;28;20303;-28
2023/11/26 02:25:13;;;;;;;13.20;2.47;;;;;;;;;;5096277;28;20119;-28
2023/11/26 02:27:38;;;;;;;9.40;2.58;;;;;;;;;;5096642;28;20016;-28
2023/11/26 02:30:04;;;;;;;10.75;2.15;;;;;;;;;;5096860;28;20358;-28
2023/11/26 02:32:29;;;;;;;9.75;2.03;;;;;;;;;;5096453;28;20030;-28
2023/11/26 02:34:54;;;;;;;7.90;2.10;;;;;;;;;;5096270;28;20066;-28
2023/11/26 02:37:19;;;;;;;7.00;2.00;;;;;;;;;;5096503;28;20266;-28
2023/11/26 02:39:45;;;;;;;9.75;2.33;;;;;;;;;;5096678;28;20250;-28
2023/11/26 02:42:12;;;;;;;9.13;2.08;;;;;;;;;;5096054;28;20028;-29
2023/11/26 02:44:37;;;;;;;9.70;2.22;;;;;;;;;;5096372;28;20023;-28
2023/11/26 02:47:03;;;;;;;6.03;1.80;;;;;;;;;;5094971;28;20013;-29
2023/11/26 02:49:28;;;;;;;13.30;2.53;;;;;;;;;;5096220;28;20285;-28
2023/11/26 02:51:53;;;;;;;5.25;2.00;;;;;;;;;;5095847;28;20035;-29
2023/11/26 02:54:19;;;;;;;8.50;2.10;;;;;;;;;;5096127;28;20024;-29
2023/11/26 02:56:45;;;;;;;8.20;2.30;;;;;;;;;;5095594;28;20385;-35
2023/11/26 02:59:10;;;;;;;6.63;1.98;;;;;;;;;;5095775;28;20103;-28
2023/11/26 03:01:35;;;;;;;11.60;2.55;;;;;;;;;;5095605;28;20024;-28
2023/11/26 03:04:01;;;;;;;7.95;2.45;;;;;;;;;;5095745;28;20016;-28
2023/11/26 03:06:26;;;;;;;10.10;2.50;;;;;;;;;;5096182;28;20043;-29
2023/11/26 03:08:59;;;;;;;6.63;2.25;;;;;;;;;;5095853;28;20486;-28
2023/11/26 03:14:11;;;;;;;9.98;2.65;;;;;;;;;;5096312;28;20065;-28
2023/11/26 03:16:39;;;;;;;7.57;1.98;;;;;;;;;;5095752;28;20297;-28
2023/11/26 03:19:04;;;;;;;12.15;2.03;;;;;;;;;;5095622;28;20027;-28
2023/11/26 03:21:29;;;;;;;13.07;2.17;;;;;;;;;;5095498;28;20463;-28
2023/11/26 03:23:55;;;;;;;6.70;1.80;;;;;;;;;;5095612;28;20012;-28
2023/11/26 03:26:25;;;;;;;9.60;1.85;;;;;;;;;;5095425;28;20023;-28
2023/11/26 03:28:51;;;;;;;6.85;1.75;;;;;;;;;;5095128;28;20013;-28
2023/11/26 03:31:16;;;;;;;7.95;1.73;;;;;;;;;;5095179;28;20099;-28
2023/11/26 03:33:41;;;;;;;6.65;1.42;;;;;;;;;;5095226;28;20081;-28
2023/11/26 03:36:09;;;;;;;5.63;1.77;;;;;;;;;;5095506;28;20015;-28
2023/11/26 03:38:35;;;;;;;7.70;1.80;;;;;;;;;;5095086;28;20647;-29
2023/11/26 03:41:00;;;;;;;9.15;1.80;;;;;;;;;;5095025;28;20073;-28
2023/11/26 03:43:25;;;;;;;9.13;1.90;;;;;;;;;;5094770;28;20048;-28
2023/11/26 03:45:51;;;;;;;8.05;1.75;;;;;;;;;;5095264;28;20246;-29
2023/11/26 03:48:16;;;;;;;5.78;1.83;;;;;;;;;;5094826;28;20012;-28
2023/11/26 03:50:42;;;;;;;8.53;1.73;;;;;;;;;;5094795;28;20008;-28
2023/11/26 03:53:08;;;;;;;7.40;1.88;;;;;;;;;;5094972;28;20784;-28
2023/11/26 03:55:33;;;;;;;11.82;1.95;;;;;;;;;;5094506;28;20068;-29
2023/11/26 03:57:58;;;;;;;9.48;2.08;;;;;;;;;;5094939;28;20025;-29
2023/11/26 04:00:24;;;;;;;8.15;2.30;;;;;;;;;;5095126;28;20016;-28
2023/11/26 04:02:49;;;;;;;9.45;2.20;;;;;;;;;;5094736;28;20070;-28
2023/11/26 04:05:15;;;;;;;10.88;2.10;;;;;;;;;;5094359;28;20127;-28
2023/11/26 04:07:41;;;;;;;10.07;2.20;;;;;;;;;;5095035;28;20104;-28
2023/11/26 04:10:08;;;;;;;6.38;1.98;;;;;;;;;;5094368;28;20616;-28
2023/11/26 04:12:33;;;;;;;6.00;1.90;;;;;;;;;;5094227;28;20106;-28
2023/11/26 04:15:01;;;;;;;10.80;2.28;;;;;;;;;;5094884;28;20051;-28
2023/11/26 04:17:26;;;;;;;7.40;2.47;;;;;;;;;;5095287;28;20107;-29
2023/11/26 04:19:52;;;;;;;6.77;2.20;;;;;;;;;;5094686;28;20059;-28
2023/11/26 04:22:17;;;;;;;12.43;2.40;;;;;;;;;;5094384;28;20809;-28
2023/11/26 04:24:43;;;;;;;4.47;2.00;;;;;;;;;;5094169;28;20409;-28
2023/11/26 04:27:08;;;;;;;10.73;2.20;;;;;;;;;;5094070;28;20348;-29
2023/11/26 04:29:33;;;;;;;7.50;2.47;;;;;;;;;;5094301;28;20379;-29
2023/11/26 04:31:58;;;;;;;10.38;2.28;;;;;;;;;;5094515;28;20023;-29
2023/11/26 04:34:24;;;;;;;11.60;3.10;;;;;;;;;;5094255;28;20024;-28
2023/11/26 04:36:49;;;;;;;11.85;3.08;;;;;;;;;;5093918;28;20681;-29
2023/11/26 04:39:15;;;;;;;9.10;3.20;;;;;;;;;;5094446;28;20028;-28
2023/11/26 04:41:40;;;;;;;15.70;2.93;;;;;;;;;;5093707;28;20277;-28
2023/11/26 04:44:07;;;;;;;8.60;2.10;;;;;;;;;;5093756;28;20348;-29
2023/11/26 04:46:32;;;;;;;10.77;2.58;;;;;;;;;;5093838;28;20012;-28
2023/11/26 04:48:57;;;;;;;8.40;2.20;;;;;;;;;;5093714;28;20012;-28
2023/11/26 04:51:22;;;;;;;7.77;2.30;;;;;;;;;;5094247;28;20091;-28
2023/11/26 04:53:48;;;;;;;14.25;2.95;;;;;;;;;;5093719;28;20285;-28
2023/11/26 04:56:13;;;;;;;9.43;2.30;;;;;;;;;;5093698;28;20047;-29
2023/11/26 04:58:38;;;;;;;9.60;2.35;;;;;;;;;;5093176;28;20051;-29
2023/11/26 05:01:04;;;;;;;7.67;2.30;;;;;;;;;;5091386;28;20088;-28
2023/11/26 05:03:29;;;;;;;11.10;2.47;;;;;;;;;;5091380;28;20372;-28
2023/11/26 05:05:54;;;;;;;9.45;2.67;;;;;;;;;;5091639;28;20459;-28
2023/11/26 05:08:20;;;;;;;11.70;2.60;;;;;;;;;;5091592;28;20085;-28
2023/11/26 05:10:45;;;;;;;11.07;2.47;;;;;;;;;;5090645;28;20469;-28
2023/11/26 05:13:10;;;;;;;7.70;2.65;;;;;;;;;;5091478;28;20364;-29
2023/11/26 05:15:36;;;;;;;6.87;2.40;;;;;;;;;;5091213;28;20095;-28
2023/11/26 05:18:01;;;;;;;6.82;2.50;;;;;;;;;;5091729;28;20254;-28
2023/11/26 05:20:26;;;;;;;8.93;2.40;;;;;;;;;;5091742;28;20019;-29
2023/11/26 05:22:53;;;;;;;12.57;2.67;;;;;;;;;;5091328;28;20483;-28
2023/11/26 05:25:20;;;;;;;8.18;2.65;;;;;;;;;;5091782;28;20721;-29
2023/11/26 05:27:45;;;;;;;10.32;2.40;;;;;;;;;;5091270;28;20016;-28
2023/11/26 05:30:11;;;;;;;8.27;2.53;;;;;;;;;;5092665;28;20023;-29
2023/11/26 05:32:36;;;;;;;5.82;2.13;;;;;;;;;;5093254;28;20081;-28
2023/11/26 05:35:12;;;;;;;6.35;1.95;;;;;;;;;;5093570;28;20528;-29
2023/11/26 05:37:37;;;;;;;7.13;1.77;;;;;;;;;;5093493;28;20426;-28
2023/11/26 05:40:05;;;;;;;7.70;1.92;;;;;;;;;;5093169;28;20055;-28
2023/11/26 05:42:30;;;;;;;11.93;1.90;;;;;;;;;;5093064;28;20061;-28
2023/11/26 05:44:55;;;;;;;6.47;1.90;;;;;;;;;;5093130;28;20013;-28
2023/11/26 05:47:20;;;;;;;8.63;1.87;;;;;;;;;;5093125;28;20760;-29
2023/11/26 05:49:45;;;;;;;6.30;2.10;;;;;;;;;;5093075;28;20246;-29
2023/11/26 05:52:10;;;;;;;8.40;1.67;;;;;;;;;;5092950;28;20329;-28
2023/11/26 05:54:36;;;;;;;12.23;1.90;;;;;;;;;;5093585;28;20024;-28
2023/11/26 05:57:01;;;;;;;9.80;1.88;;;;;;;;;;5092906;28;20052;-29
2023/11/26 05:59:26;;;;;;;6.55;1.83;;;;;;;;;;5093041;28;20012;-28
2023/11/26 06:01:51;;;;;;;5.60;1.70;;;;;;;;;;5092885;28;20476;-28
2023/11/26 06:04:16;;;;;;;9.13;2.30;;;;;;;;;;5093501;28;20097;-28
2023/11/26 06:06:42;;;;;;;11.07;2.00;;;;;;;;;;5092949;28;20724;-29
2023/11/26 06:09:07;;;;;;;14.73;2.75;;;;;;;;;;5092887;28;20262;-29
2023/11/26 06:11:33;;;;;;;7.63;2.00;;;;;;;;;;5092838;28;20016;-28
2023/11/26 06:13:58;;;;;;;7.57;1.90;;;;;;;;;;5093191;28;20051;-29
2023/11/26 06:16:23;;;;;;;8.00;1.63;;;;;;;;;;5092851;28;20281;-28
2023/11/26 06:18:48;;;;;;;10.37;2.43;;;;;;;;;;5092856;28;20027;-29
2023/11/26 06:21:14;;;;;;;7.77;1.70;;;;;;;;;;5093142;28;20266;-28
2023/11/26 06:23:40;;;;;;;10.57;1.90;;;;;;;;;;5096712;28;20258;-28
2023/11/26 06:26:05;;;;;;;8.13;1.70;;;;;;;;;;5096772;28;20024;-29
2023/11/26 06:28:30;;;;;;;6.88;1.60;;;;;;;;;;5097045;28;20261;-29
2023/11/26 06:30:55;;;;;;;6.07;1.58;;;;;;;;;;5096650;28;20020;-28
2023/11/26 06:33:20;;;;;;;8.50;1.70;;;;;;;;;;5096363;28;20433;-28
2023/11/26 06:35:45;;;;;;;8.70;2.20;;;;;;;;;;5096274;28;20261;-29
2023/11/26 06:38:11;;;;;;;6.87;1.50;;;;;;;;;;5096226;28;20724;-28
2023/11/26 06:40:36;;;;;;;7.77;1.53;;;;;;;;;;5096464;28;20348;-28
2023/11/26 06:43:01;;;;;;;11.45;1.77;;;;;;;;;;5096433;28;20246;-28
2023/11/26 06:45:26;;;;;;;7.15;1.30;;;;;;;;;;5096673;28;20019;-28
2023/11/26 06:47:53;;;;;;;7.38;1.70;;;;;;;;;;5096225;28;20383;-29
2023/11/26 06:50:18;;;;;;;8.45;1.65;;;;;;;;;;5095994;28;20019;-29
2023/11/26 06:52:43;;;;;;;5.50;1.70;;;;;;;;;;5096238;28;20020;-29
2023/11/26 06:55:08;;;;;;;10.65;2.30;;;;;;;;;;5095745;28;20040;-29
2023/11/26 06:57:33;;;;;;;10.40;1.70;;;;;;;;;;5095878;28;20063;-29
2023/11/26 06:59:59;;;;;;;8.70;1.90;;;;;;;;;;5096378;28;20257;-28
2023/11/26 07:02:24;;;;;;;6.05;1.40;;;;;;;;;;5077502;28;20285;-28
2023/11/26 07:04:49;;;;;;;5.38;1.58;;;;;;;;;;5096026;28;20012;-29
2023/11/26 07:07:17;;;;;;;4.07;1.45;;;;;;;;;;5095967;28;20418;-28
2023/11/26 07:09:42;;;;;;;6.22;1.70;;;;;;;;;;5096090;28;20022;-28
2023/11/26 07:12:08;;;;;;;10.33;2.37;;;;;;;;;;5095537;28;20507;-28
2023/11/26 07:14:33;;;;;;;6.93;2.13;;;;;;;;;;5095795;28;20258;-28
2023/11/26 07:16:58;;;;;;;6.07;1.70;;;;;;;;;;5095446;28;20020;-28
2023/11/26 07:19:24;;;;;;;7.40;2.00;;;;;;;;;;5095618;28;20254;-28
2023/11/26 07:21:49;;;;;;;8.07;2.30;;;;;;;;;;5095616;28;20278;-28
2023/11/26 07:24:14;;;;;;;8.55;2.45;;;;;;;;;;5095506;28;20035;-28
2023/11/26 07:26:39;;;;;;;6.70;2.33;;;;;;;;;;5095347;28;20012;-28
2023/11/26 07:29:05;;;;;;;6.67;2.10;;;;;;;;;;5095755;28;20024;-28
2023/11/26 07:31:30;;;;;;;7.05;2.20;;;;;;;;;;5095506;28;20253;-28
2023/11/26 07:33:56;;;;;;;10.55;2.25;;;;;;;;;;5094606;28;20467;-28
2023/11/26 07:36:24;;;;;;;5.07;2.13;;;;;;;;;;5095087;28;20432;-28
2023/11/26 07:38:50;;;;;;;7.53;2.47;;;;;;;;;;5095283;28;20462;-28
2023/11/26 07:41:15;;;;;;;7.28;2.20;;;;;;;;;;5096025;28;20134;-29
2023/11/26 07:43:41;;;;;;;9.87;2.37;;;;;;;;;;5095509;28;20066;-29
2023/11/26 07:46:07;;;;;;;8.48;2.38;;;;;;;;;;5094862;28;20602;-28
2023/11/26 07:48:32;;;;;;;14.55;4.85;;;;;;;;;;5094895;28;20031;-28
2023/11/26 07:50:58;;;;;;;8.38;3.08;;;;;;;;;;5076641;28;20020;-28
2023/11/26 07:53:25;;;;;;;7.57;2.25;;;;;;;;;;5095022;28;20023;-29
2023/11/26 07:55:54;;;;;;;5.80;2.28;;;;;;;;;;5094706;28;20048;-28
2023/11/26 07:58:22;;;;;;;8.02;2.25;;;;;;;;;;5095024;28;20497;-28
2023/11/26 08:00:47;;;;;;;11.07;3.00;;;;;;;;;;5094652;28;20066;-28
2023/11/26 08:03:13;;;;;;;8.23;2.70;;;;;;;;;;5094806;28;20051;-29
2023/11/26 08:05:38;;;;;;;9.00;2.90;;;;;;;;;;5094803;28;20095;-29
2023/11/26 08:08:03;;;;;;;9.15;2.70;;;;;;;;;;5094422;28;20023;-28
2023/11/26 08:10:30;;;;;;;13.70;3.10;;;;;;;;;;5095059;28;20016;-29
2023/11/26 08:12:57;;;;;;;11.20;3.13;;;;;;;;;;5076235;28;20020;-28
2023/11/26 08:15:24;;;;;;;6.82;2.90;;;;;;;;;;5094283;28;20032;-29
2023/11/26 08:17:50;;;;;;;9.95;3.58;;;;;;;;;;5094664;28;20015;-29
2023/11/26 08:20:16;;;;;;;16.55;6.35;;;;;;;;;;5094185;28;20028;-29
2023/11/26 08:22:45;;;;;;;20.67;6.53;;;;;;;;;;5094168;28;20024;-28
2023/11/26 08:25:12;;;;;;;12.90;5.82;;;;;;;;;;5094156;28;20020;-29
2023/11/26 08:27:37;;;;;;;16.48;3.05;;;;;;;;;;5094040;28;20016;-28
2023/11/26 08:30:12;;;;;;;12.60;3.83;;;;;;;;;;5094386;28;20020;-28
2023/11/26 08:32:44;;;;;;;9.98;2.35;;;;;;;;;;5094563;28;20027;-28
2023/11/26 08:35:09;;;;;;;8.70;2.25;;;;;;;;;;5093944;28;20028;-28
2023/11/26 08:37:37;;;;;;;4.63;2.05;;;;;;;;;;5093945;28;20099;-29
2023/11/26 08:40:02;;;;;;;8.02;2.20;;;;;;;;;;5094195;28;20027;-28
2023/11/26 08:42:28;;;;;;;6.93;2.05;;;;;;;;;;5094008;28;20028;-28
2023/11/26 08:44:56;;;;;;;11.43;2.58;;;;;;;;;;5093344;28;20470;-28
2023/11/26 08:47:23;;;;;;;8.25;2.33;;;;;;;;;;5093667;28;20058;-28
2023/11/26 08:49:49;;;;;;;9.45;2.30;;;;;;;;;;5094124;28;20020;-29
2023/11/26 08:52:14;;;;;;;8.48;2.25;;;;;;;;;;5093662;28;20042;-28
2023/11/26 08:54:39;;;;;;;8.45;2.60;;;;;;;;;;5093681;28;20154;-29
2023/11/26 08:57:05;;;;;;;12.13;2.63;;;;;;;;;;5093456;28;20048;-29
2023/11/26 08:59:30;;;;;;;10.38;2.78;;;;;;;;;;5093899;28;20269;-28
2023/11/26 09:01:55;;;;;;;7.20;2.20;;;;;;;;;;5094072;28;20032;-28
2023/11/26 09:04:21;;;;;;;13.23;2.55;;;;;;;;;;5094163;28;20081;-28
2023/11/26 09:06:46;;;;;;;6.70;2.35;;;;;;;;;;5093837;28;20062;-29
2023/11/26 09:09:12;;;;;;;8.80;2.35;;;;;;;;;;5094091;28;20016;-29
2023/11/26 09:11:37;;;;;;;8.38;2.28;;;;;;;;;;5093928;28;20061;-28
2023/11/26 09:14:02;;;;;;;8.33;2.33;;;;;;;;;;5094025;28;20054;-29
2023/11/26 09:16:31;;;;;;;8.95;2.50;;;;;;;;;;5093696;28;20323;-28
2023/11/26 09:18:56;;;;;;;12.63;2.50;;;;;;;;;;5093716;28;20028;-28
2023/11/26 09:21:22;;;;;;;11.53;2.80;;;;;;;;;;5093384;28;20145;-28
2023/11/26 09:23:48;;;;;;;12.43;3.00;;;;;;;;;;5093391;28;20258;-28
2023/11/26 09:26:13;;;;;;;11.32;2.75;;;;;;;;;;5093904;28;20027;-29
2023/11/26 09:28:38;;;;;;;9.82;2.63;;;;;;;;;;5093313;28;20016;-29
2023/11/26 09:31:05;;;;;;;8.60;2.50;;;;;;;;;;5093399;28;20099;-28
2023/11/26 09:33:31;;;;;;;5.25;2.03;;;;;;;;;;5093291;28;20023;-28
2023/11/26 09:35:56;;;;;;;9.50;2.15;;;;;;;;;;5093304;28;20024;-28
2023/11/26 09:38:21;;;;;;;6.30;2.10;;;;;;;;;;5093536;28;20063;-29
2023/11/26 09:40:46;;;;;;;13.67;2.50;;;;;;;;;;5093584;28;20258;-28
2023/11/26 09:43:13;;;;;;;5.75;2.15;;;;;;;;;;5093513;28;20250;-29
2023/11/26 09:45:38;;;;;;;13.82;2.63;;;;;;;;;;5093248;28;20024;-28
2023/11/26 09:48:04;;;;;;;6.60;2.70;;;;;;;;;;5093455;28;20024;-28
2023/11/26 09:50:30;;;;;;;8.85;2.67;;;;;;;;;;5093461;28;20046;-29
2023/11/26 09:52:55;;;;;;;7.40;2.33;;;;;;;;;;5093755;28;20047;-29
2023/11/26 09:55:20;;;;;;;7.03;2.70;;;;;;;;;;5093493;28;20286;-29
2023/11/26 09:57:45;;;;;;;10.05;2.35;;;;;;;;;;5096498;28;20047;-28
2023/11/26 10:00:12;;;;;;;9.90;2.67;;;;;;;;;;5097598;28;20499;-29
2023/11/26 10:02:38;;;;;;;11.77;2.28;;;;;;;;;;5097153;28;20383;-28
2023/11/26 10:05:03;;;;;;;11.52;2.53;;;;;;;;;;5097221;28;20031;-28
2023/11/26 10:07:36;;;;;;;12.15;2.53;;;;;;;;;;5097167;28;20019;-28
2023/11/26 10:10:09;;;;;;;10.57;2.65;;;;;;;;;;5096999;28;20004;-28
2023/11/26 10:12:34;;;;;;;;;;;;;;;;;;5097070;28;20119;-28
2023/11/26 10:15:06;;;;;;;13.43;2.63;;;;;;;;;;5096932;28;19954;-28
2023/11/26 10:17:31;;;;;;;8.15;2.83;;;;;;;;;;5096565;28;20052;-28
2023/11/26 10:20:15;;;;;;;12.65;2.70;;;;;;;;;;5096623;28;20036;-28
2023/11/26 10:22:43;;;;;;;8.20;3.00;;;;;;;;;;5096805;28;20374;-28
2023/11/26 10:25:12;;;;;;;12.80;2.80;;;;;;;;;;5096934;28;20066;-29
2023/11/26 10:27:38;;;;;;;13.88;2.97;;;;;;;;;;5096494;28;20042;-28
2023/11/26 10:30:03;;;;;;;15.65;3.25;;;;;;;;;;5096765;28;20095;-29
2023/11/26 10:32:29;;;;;;;6.93;2.70;;;;;;;;;;5096923;28;20516;-28
2023/11/26 10:34:54;;;;;;;10.82;2.40;;;;;;;;;;5096641;28;20024;-29
2023/11/26 10:37:20;;;;;;;12.52;2.90;;;;;;;;;;5096294;28;20382;-29
2023/11/26 10:39:45;;;;;;;10.85;3.17;;;;;;;;;;5096869;28;20020;-29
2023/11/26 10:42:11;;;;;;;10.77;2.90;;;;;;;;;;5096725;28;20028;-29
2023/11/26 10:44:36;;;;;;;7.47;2.83;;;;;;;;;;5096220;28;20019;-29
2023/11/26 10:47:05;;;;;;;9.40;2.50;;;;;;;;;;5096063;28;20012;-29
2023/11/26 10:49:36;;;;;;;13.48;3.05;;;;;;;;;;5096409;28;20044;-29
2023/11/26 10:52:07;;;;;;;9.43;2.70;;;;;;;;;;5096019;28;20020;-29
2023/11/26 10:54:37;;;;;;;8.93;2.85;;;;;;;;;;5096040;28;20028;-29
2023/11/26 10:57:08;;;;;;;8.13;2.65;;;;;;;;;;5095780;28;20051;-29
2023/11/26 10:59:36;;;;;;;7.75;2.50;;;;;;;;;;5096194;28;20459;-29
2023/11/26 11:02:01;;;;;;;10.00;2.90;;;;;;;;;;5095861;28;20404;-29
2023/11/26 11:04:28;;;;;;;10.32;3.00;;;;;;;;;;5096111;28;20040;-29
2023/11/26 11:06:53;;;;;;;13.85;2.63;;;;;;;;;;5095768;28;20016;-29
2023/11/26 11:09:23;;;;;;;9.43;2.70;;;;;;;;;;5094736;28;20016;-29
2023/11/26 11:12:05;;;;;;;8.98;3.00;;;;;;;;;;5095538;28;20082;-28
2023/11/26 11:14:31;;;;;;;11.20;3.00;;;;;;;;;;5096040;28;20379;-29
2023/11/26 11:16:56;;;;;;;9.85;2.65;;;;;;;;;;5095315;28;20077;-28
2023/11/26 11:19:40;;;;;;;11.13;3.33;;;;;;;;;;5095770;28;20020;-29
2023/11/26 11:22:05;;;;;;;11.25;2.83;;;;;;;;;;5095349;28;20293;-29
2023/11/26 11:24:31;;;;;;;10.00;2.90;;;;;;;;;;5095997;28;20016;-29
2023/11/26 11:26:56;;;;;;;11.77;2.33;;;;;;;;;;5095610;28;20725;-29
2023/11/26 11:29:30;;;;;;;9.73;2.60;;;;;;;;;;5095710;28;20343;-29
2023/11/26 11:32:00;;;;;;;8.50;2.75;;;;;;;;;;5095237;28;20031;-29
2023/11/26 11:34:25;;;;;;;11.35;2.70;;;;;;;;;;5095562;28;20016;-29
2023/11/26 11:36:51;;;;;;;11.73;2.70;;;;;;;;;;5095586;28;20020;-29
2023/11/26 11:39:17;;;;;;;10.02;2.78;;;;;;;;;;5095445;28;20771;-29
2023/11/26 11:41:54;;;;;;;13.02;2.28;;;;;;;;;;5095372;28;20519;-29
2023/11/26 11:44:30;;;;;;;9.95;2.88;;;;;;;;;;5095119;28;20023;-29
2023/11/26 11:46:56;;;;;;;12.38;2.80;;;;;;;;;;5094994;28;20070;-29
2023/11/26 11:49:21;;;;;;;7.85;2.55;;;;;;;;;;5095268;28;20020;-29
2023/11/26 11:51:46;;;;;;;12.35;2.38;;;;;;;;;;5094965;28;20035;-29
2023/11/26 11:54:11;;;;;;;6.37;2.53;;;;;;;;;;5095364;28;20020;-29
2023/11/26 11:56:40;;;;;;;7.65;2.80;;;;;;;;;;5094745;28;20301;-29
2023/11/26 11:59:06;;;;;;;6.07;2.55;;;;;;;;;;5095278;28;20020;-29
2023/11/26 12:01:31;;;;;;;8.55;2.72;;;;;;;;;;5094904;28;20039;-29
2023/11/26 12:04:00;;;;;;;9.57;2.85;;;;;;;;;;5095010;28;20032;-29
2023/11/26 12:06:25;;;;;;;9.55;2.50;;;;;;;;;;5094900;28;20421;-29
2023/11/26 12:08:54;;;;;;;9.48;2.67;;;;;;;;;;5094809;28;20016;-29
2023/11/26 12:11:20;;;;;;;11.40;2.80;;;;;;;;;;5094514;28;20035;-29
2023/11/26 12:13:45;;;;;;;9.82;2.90;;;;;;;;;;5095034;28;20024;-29
2023/11/26 12:16:11;;;;;;;13.75;2.50;;;;;;;;;;5094436;28;20091;-29
2023/11/26 12:18:36;;;;;;;12.57;2.75;;;;;;;;;;5094453;28;20027;-29
2023/11/26 12:21:04;;;;;;;9.23;2.58;;;;;;;;;;5076071;28;20421;-30
2023/11/26 12:23:30;;;;;;;17.50;3.58;;;;;;;;;;5094387;28;20379;-29
2023/11/26 12:25:57;;;;;;;11.40;3.20;;;;;;;;;;5094142;28;20019;-36
2023/11/26 12:28:23;;;;;;;6.95;2.47;;;;;;;;;;5094366;28;20012;-29
2023/11/26 12:30:55;;;;;;;13.30;3.20;;;;;;;;;;5094732;28;20142;-29
2023/11/26 12:33:20;;;;;;;7.43;2.35;;;;;;;;;;5094376;28;20023;-29
2023/11/26 12:35:46;;;;;;;10.43;2.60;;;;;;;;;;5094479;28;20459;-29
2023/11/26 12:38:11;;;;;;;9.20;2.67;;;;;;;;;;5094835;28;20034;-29
2023/11/26 12:40:36;;;;;;;7.07;3.10;;;;;;;;;;5093757;28;20095;-29
2023/11/26 12:43:02;;;;;;;8.77;3.10;;;;;;;;;;5094007;28;20274;-29
2023/11/26 12:45:27;;;;;;;8.50;2.90;;;;;;;;;;5093717;28;20459;-29
2023/11/26 12:47:56;;;;;;;11.37;3.10;;;;;;;;;;5093676;28;20329;-29
2023/11/26 12:50:22;;;;;;;10.00;2.72;;;;;;;;;;5093847;28;20258;-29
2023/11/26 12:52:48;;;;;;;10.40;3.55;;;;;;;;;;5093720;28;20364;-29
2023/11/26 12:55:14;;;;;;;8.07;3.00;;;;;;;;;;5093577;28;20016;-29
2023/11/26 12:57:40;;;;;;;9.98;3.00;;;;;;;;;;5094170;28;20023;-29
2023/11/26 13:00:07;;;;;;;14.60;3.20;;;;;;;;;;5093822;28;20106;-29
2023/11/26 13:02:35;;;;;;;12.20;3.35;;;;;;;;;;5093284;28;20012;-29
2023/11/26 13:05:04;;;;;;;10.07;2.97;;;;;;;;;;5093714;28;20458;-29
2023/11/26 13:07:38;;;;;;;11.70;3.00;;;;;;;;;;5093663;28;20008;-29
2023/11/26 13:10:08;;;;;;;9.90;2.55;;;;;;;;;;5093586;28;20016;-29
2023/11/26 13:12:41;;;;;;;7.18;2.63;;;;;;;;;;5093459;28;20482;-29
2023/11/26 13:15:06;;;;;;;10.02;3.13;;;;;;;;;;5092851;28;20016;-29
2023/11/26 13:17:31;;;;;;;7.40;2.65;;;;;;;;;;5092769;28;20035;-29
2023/11/26 13:19:57;;;;;;;10.68;2.50;;;;;;;;;;5093269;28;20020;-29
2023/11/26 13:22:22;;;;;;;6.30;2.20;;;;;;;;;;5092093;28;20069;-29
2023/11/26 13:24:47;;;;;;;8.77;2.30;;;;;;;;;;5093302;28;20262;-29
2023/11/26 13:27:12;;;;;;;8.95;2.45;;;;;;;;;;5093152;28;20104;-29
2023/11/26 13:29:37;;;;;;;9.07;2.60;;;;;;;;;;5093191;28;20043;-29
2023/11/26 13:32:03;;;;;;;6.97;2.28;;;;;;;;;;5095428;28;20265;-30
2023/11/26 13:34:28;;;;;;;11.90;2.80;;;;;;;;;;5097363;28;20027;-29
2023/11/26 13:36:53;;;;;;;7.55;2.53;;;;;;;;;;5097476;28;20016;-29
2023/11/26 13:39:20;;;;;;;8.03;2.70;;;;;;;;;;5097114;28;20459;-29
2023/11/26 13:41:46;;;;;;;8.38;2.65;;;;;;;;;;5097395;28;20612;-29
2023/11/26 13:44:11;;;;;;;8.55;2.90;;;;;;;;;;5097422;28;20048;-29
2023/11/26 13:46:36;;;;;;;6.93;2.97;;;;;;;;;;5079636;28;20017;-29
2023/11/26 13:49:01;;;;;;;9.85;2.95;;;;;;;;;;5097270;28;20417;-29
2023/11/26 13:51:26;;;;;;;7.50;3.10;;;;;;;;;;5097146;28;20055;-29
2023/11/26 13:53:52;;;;;;;12.57;3.10;;;;;;;;;;5096979;28;20262;-29
2023/11/26 13:56:17;;;;;;;15.38;3.90;;;;;;;;;;5096788;28;20044;-29
2023/11/26 13:58:42;;;;;;;10.68;2.80;;;;;;;;;;5097383;28;20101;-29
2023/11/26 14:01:08;;;;;;;8.18;2.70;;;;;;;;;;5096767;28;20103;-31
2023/11/26 14:03:34;;;;;;;6.35;2.45;;;;;;;;;;5096885;28;20008;-29
2023/11/26 14:05:59;;;;;;;10.77;2.60;;;;;;;;;;5096927;28;20452;-29
2023/11/26 14:08:24;;;;;;;8.50;2.83;;;;;;;;;;5097037;28;20020;-29
2023/11/26 14:10:50;;;;;;;6.97;2.45;;;;;;;;;;5096730;28;20258;-29
2023/11/26 14:13:17;;;;;;;8.10;2.55;;;;;;;;;;5096646;28;20419;-29
2023/11/26 14:15:42;;;;;;;7.32;2.58;;;;;;;;;;5096742;28;20020;-29
2023/11/26 14:18:08;;;;;;;8.88;2.72;;;;;;;;;;5097000;28;20443;-29
2023/11/26 14:20:33;;;;;;;12.07;2.80;;;;;;;;;;5096897;28;20367;-29
2023/11/26 14:22:58;;;;;;;11.93;2.20;;;;;;;;;;5097349;28;20020;-29
2023/11/26 14:25:23;;;;;;;5.97;1.90;;;;;;;;;;5096365;28;20330;-29
2023/11/26 14:27:49;;;;;;;5.25;2.10;;;;;;;;;;5096836;28;20150;-29
2023/11/26 14:30:15;;;;;;;10.07;2.35;;;;;;;;;;5096750;28;20046;-29
2023/11/26 14:32:40;;;;;;;5.18;2.13;;;;;;;;;;5096107;28;20039;-29
2023/11/26 14:35:07;;;;;;;7.40;2.38;;;;;;;;;;5095897;28;20024;-29